createdAt,value
2022-07-26T00:01:32.138Z,3.88
2022-07-26T00:04:00.406Z,3.88
2022-07-26T00:06:27.765Z,3.25
2022-07-26T00:08:54.811Z,3.50
2022-07-26T00:11:22.350Z,3.40
2022-07-26T00:13:50.152Z,3.33
2022-07-26T00:16:17.343Z,3.58
2022-07-26T00:18:44.386Z,3.22
2022-07-26T00:21:11.850Z,2.60
2022-07-26T00:23:39.140Z,3.50
2022-07-26T00:26:06.029Z,3.70
2022-07-26T00:28:32.918Z,3.22
2022-07-26T00:30:59.909Z,2.90
2022-07-26T00:33:26.869Z,2.80
2022-07-26T00:36:02.005Z,3.28
2022-07-26T00:38:32.706Z,3.00
2022-07-26T00:41:00.237Z,3.55
2022-07-26T00:43:27.735Z,3.20
2022-07-26T00:45:55.029Z,3.53
2022-07-26T00:48:22.091Z,3.20
2022-07-26T00:50:49.734Z,3.15
2022-07-26T00:53:20.746Z,3.67
2022-07-26T00:55:49.839Z,3.08
2022-07-26T00:58:18.488Z,3.00
2022-07-26T01:00:45.987Z,3.22
2022-07-26T01:03:13.027Z,3.10
2022-07-26T01:05:39.907Z,3.13
2022-07-26T01:08:06.974Z,2.88
2022-07-26T01:10:34.062Z,2.55
2022-07-26T01:13:00.976Z,2.80
2022-07-26T01:15:28.077Z,3.33
2022-07-26T01:17:54.979Z,2.83
2022-07-26T01:20:22.036Z,3.20
2022-07-26T01:22:48.958Z,3.90
2022-07-26T01:25:15.916Z,3.17
2022-07-26T01:27:43.337Z,3.03
2022-07-26T01:30:12.598Z,2.95
2022-07-26T01:32:39.813Z,3.20
2022-07-26T01:35:07.397Z,3.65
2022-07-26T01:37:34.310Z,3.03
2022-07-26T01:40:01.330Z,3.47
2022-07-26T01:42:28.277Z,3.80
2022-07-26T01:44:55.195Z,3.05
2022-07-26T01:47:22.300Z,3.38
2022-07-26T01:49:49.256Z,2.58
2022-07-26T01:52:16.205Z,4.13
2022-07-26T01:54:43.140Z,2.88
2022-07-26T01:57:10.320Z,3.20
2022-07-26T01:59:37.469Z,2.97
2022-07-26T02:02:04.709Z,2.83
2022-07-26T02:04:50.000Z,3.30
2022-07-26T02:07:16.936Z,3.30
2022-07-26T02:09:44.076Z,3.15
2022-07-26T02:12:11.018Z,3.20
2022-07-26T02:14:37.947Z,3.22
2022-07-26T02:17:05.126Z,3.42
2022-07-26T02:19:32.871Z,3.50
2022-07-26T02:21:59.809Z,3.65
2022-07-26T02:24:29.099Z,3.25
2022-07-26T02:27:00.747Z,3.05
2022-07-26T02:29:28.321Z,3.10
2022-07-26T02:31:58.029Z,3.28
2022-07-26T02:34:25.589Z,3.50
2022-07-26T02:36:52.528Z,3.75
2022-07-26T02:39:19.817Z,3.08
2022-07-26T02:41:46.685Z,2.53
2022-07-26T02:44:13.660Z,3.50
2022-07-26T02:46:40.596Z,3.53
2022-07-26T02:49:07.644Z,3.28
2022-07-26T02:51:34.669Z,2.92
2022-07-26T02:54:01.821Z,3.53
2022-07-26T02:56:29.899Z,3.85
2022-07-26T02:58:56.961Z,2.95
2022-07-26T03:01:24.047Z,3.47
2022-07-26T03:03:51.324Z,3.83
2022-07-26T03:06:19.102Z,3.47
2022-07-26T03:08:46.477Z,3.28
2022-07-26T03:11:13.484Z,3.50
2022-07-26T03:13:40.659Z,3.40
2022-07-26T03:16:08.579Z,3.10
2022-07-26T03:18:35.577Z,3.63
2022-07-26T03:21:02.783Z,3.17
2022-07-26T03:23:33.380Z,3.40
2022-07-26T03:26:01.837Z,3.20
2022-07-26T03:28:33.061Z,3.58
2022-07-26T03:31:00.843Z,3.35
2022-07-26T03:33:28.472Z,3.42
2022-07-26T03:35:55.297Z,3.15
2022-07-26T03:38:22.685Z,3.47
2022-07-26T03:40:49.544Z,3.20
2022-07-26T03:43:18.947Z,3.30
2022-07-26T03:45:48.174Z,3.83
2022-07-26T03:48:15.365Z,3.35
2022-07-26T03:50:43.054Z,3.28
2022-07-26T03:53:10.003Z,3.45
2022-07-26T03:55:55.498Z,3.00
2022-07-26T03:58:22.508Z,3.63
2022-07-26T04:00:49.503Z,3.58
2022-07-26T04:03:16.425Z,3.40
2022-07-26T04:05:48.710Z,3.90
2022-07-26T04:08:16.767Z,3.38
2022-07-26T04:10:51.088Z,3.60
2022-07-26T04:13:19.130Z,3.70
2022-07-26T04:15:46.288Z,3.65
2022-07-26T04:18:14.356Z,3.05
2022-07-26T04:20:41.643Z,3.75
2022-07-26T04:23:11.300Z,3.30
2022-07-26T04:25:40.867Z,3.35
2022-07-26T04:28:09.048Z,2.65
2022-07-26T04:30:36.568Z,3.33
2022-07-26T04:33:04.189Z,3.78
2022-07-26T04:35:31.777Z,3.92
2022-07-26T04:37:58.917Z,3.65
2022-07-26T04:40:28.437Z,3.85
2022-07-26T04:42:56.650Z,3.65
2022-07-26T04:45:23.537Z,3.17
2022-07-26T04:47:51.144Z,3.50
2022-07-26T04:50:19.708Z,3.28
2022-07-26T04:52:47.310Z,4.13
2022-07-26T04:55:14.294Z,3.78
2022-07-26T04:57:41.522Z,4.05
2022-07-26T05:00:26.986Z,4.60
2022-07-26T05:02:57.078Z,3.83
2022-07-26T05:05:25.647Z,3.28
2022-07-26T05:07:54.805Z,3.25
2022-07-26T05:10:27.734Z,4.80
2022-07-26T05:12:54.678Z,2.95
2022-07-26T05:15:21.636Z,3.05
2022-07-26T05:17:49.555Z,2.63
2022-07-26T05:20:17.442Z,2.63
2022-07-26T05:22:45.367Z,2.78
2022-07-26T05:25:12.365Z,2.70
2022-07-26T05:27:41.591Z,2.60
2022-07-26T05:30:10.108Z,2.70
2022-07-26T05:32:37.150Z,2.10
2022-07-26T05:35:04.722Z,2.45
2022-07-26T05:37:31.647Z,2.53
2022-07-26T05:39:58.803Z,2.28
2022-07-26T05:42:25.877Z,2.72
2022-07-26T05:44:53.330Z,2.33
2022-07-26T05:47:23.033Z,3.08
2022-07-26T05:49:50.612Z,3.10
2022-07-26T05:52:17.614Z,3.13
2022-07-26T05:54:44.441Z,3.28
2022-07-26T05:57:11.309Z,2.72
2022-07-26T05:59:38.267Z,3.05
2022-07-26T06:02:05.457Z,2.85
2022-07-26T06:04:32.564Z,3.22
2022-07-26T06:06:59.710Z,3.20
2022-07-26T06:09:27.132Z,2.95
2022-07-26T06:11:54.146Z,3.22
2022-07-26T06:14:21.273Z,2.75
2022-07-26T06:16:48.502Z,2.65
2022-07-26T06:19:16.567Z,3.10
2022-07-26T06:21:45.649Z,2.30
2022-07-26T06:24:13.412Z,2.90
2022-07-26T06:26:40.481Z,2.40
2022-07-26T06:29:07.569Z,2.65
2022-07-26T06:31:34.973Z,2.30
2022-07-26T06:34:02.007Z,2.25
2022-07-26T06:36:30.938Z,2.30
2022-07-26T06:38:58.756Z,2.10
2022-07-26T06:41:26.296Z,2.10
2022-07-26T06:43:53.527Z,1.90
2022-07-26T06:46:21.380Z,1.50
2022-07-26T06:48:52.768Z,1.67
2022-07-26T06:51:20.895Z,1.70
2022-07-26T06:53:48.208Z,1.30
2022-07-26T06:56:17.881Z,1.52
2022-07-26T06:58:45.291Z,1.20
2022-07-26T07:01:12.553Z,1.60
2022-07-26T07:03:59.285Z,1.42
2022-07-26T07:06:26.240Z,1.52
2022-07-26T07:08:53.189Z,1.58
2022-07-26T07:11:20.560Z,1.80
2022-07-26T07:13:47.521Z,1.30
2022-07-26T07:16:14.511Z,1.35
2022-07-26T07:18:41.895Z,1.70
2022-07-26T07:21:08.839Z,1.60
2022-07-26T07:23:35.679Z,1.33
2022-07-26T07:26:02.602Z,1.08
2022-07-26T07:28:29.852Z,1.20
2022-07-26T07:30:56.855Z,1.10
2022-07-26T07:33:25.901Z,1.10
2022-07-26T07:35:58.942Z,0.90
2022-07-26T07:38:25.921Z,1.42
2022-07-26T07:40:53.339Z,1.00
2022-07-26T07:43:20.395Z,1.10
2022-07-26T07:45:48.214Z,1.40
2022-07-26T07:48:16.010Z,1.23
2022-07-26T07:50:43.066Z,1.85
2022-07-26T07:53:10.333Z,1.30
2022-07-26T07:55:41.543Z,1.55
2022-07-26T07:58:14.342Z,1.30
2022-07-26T08:00:42.917Z,1.48
2022-07-26T08:03:09.856Z,1.40
2022-07-26T08:05:40.555Z,1.42
2022-07-26T08:08:08.443Z,1.17
2022-07-26T08:10:35.876Z,1.35
2022-07-26T08:13:08.843Z,1.52
2022-07-26T08:15:39.140Z,1.20
2022-07-26T08:18:06.538Z,1.25
2022-07-26T08:20:35.622Z,1.50
2022-07-26T08:23:03.332Z,1.10
2022-07-26T08:25:30.191Z,1.52
2022-07-26T08:28:04.277Z,1.52
2022-07-26T08:30:33.835Z,1.60
2022-07-26T08:33:01.066Z,1.30
2022-07-26T08:35:29.606Z,1.13
2022-07-26T08:37:57.340Z,1.27
2022-07-26T08:40:24.516Z,1.23
2022-07-26T08:42:57.733Z,1.35
2022-07-26T08:45:26.993Z,1.15
2022-07-26T08:48:16.182Z,1.30
2022-07-26T08:50:41.618Z,1.08
2022-07-26T08:53:10.165Z,0.95
2022-07-26T08:56:04.313Z,1.33
2022-07-26T08:58:24.170Z,1.30
2022-07-26T09:01:08.330Z,1.48
2022-07-26T09:03:38.784Z,1.30
2022-07-26T09:06:20.267Z,1.10
2022-07-26T09:08:52.196Z,1.20
2022-07-26T09:11:24.966Z,1.13
2022-07-26T09:16:19.175Z,1.05
2022-07-26T09:18:46.628Z,1.20
2022-07-26T09:21:36.083Z,1.38
2022-07-26T09:24:03.204Z,1.00
2022-07-26T09:26:30.285Z,1.25
2022-07-26T09:29:12.342Z,1.23
2022-07-26T09:31:40.266Z,1.63
2022-07-26T09:34:08.303Z,1.30
2022-07-26T09:36:53.957Z,1.67
2022-07-26T09:39:33.562Z,1.77
2022-07-26T09:42:27.359Z,1.73
2022-07-26T09:44:57.111Z,1.40
2022-07-26T09:47:36.285Z,1.65
2022-07-26T09:50:18.345Z,1.17
2022-07-26T09:53:08.775Z,1.20
2022-07-26T09:55:45.989Z,1.63
2022-07-26T09:58:14.611Z,1.50
2022-07-26T10:00:42.339Z,1.67
2022-07-26T10:03:09.435Z,1.40
2022-07-26T10:05:36.574Z,1.40
2022-07-26T10:08:04.317Z,1.60
2022-07-26T10:10:43.180Z,1.40
2022-07-26T10:13:10.864Z,1.20
2022-07-26T10:15:40.911Z,1.73
2022-07-26T10:18:30.772Z,0.98
2022-07-26T10:20:57.854Z,0.93
2022-07-26T10:23:40.080Z,1.27
2022-07-26T10:26:09.966Z,1.63
2022-07-26T10:28:38.055Z,1.35
2022-07-26T10:31:31.858Z,2.30
2022-07-26T10:34:00.642Z,1.80
2022-07-26T10:36:30.952Z,1.40
2022-07-26T10:39:25.455Z,1.60
2022-07-26T10:42:00.187Z,1.63
2022-07-26T10:44:31.947Z,1.80
2022-07-26T10:47:08.266Z,1.50
2022-07-26T10:49:57.127Z,1.70
2022-07-26T10:52:31.089Z,1.55
2022-07-26T10:55:00.884Z,1.50
2022-07-26T10:57:33.782Z,1.70
2022-07-26T11:00:01.546Z,1.73
2022-07-26T11:02:32.375Z,1.83
2022-07-26T11:05:18.632Z,1.70
2022-07-26T11:07:56.506Z,2.13
2022-07-26T11:10:39.850Z,1.73
2022-07-26T11:13:12.593Z,2.35
2022-07-26T11:18:22.857Z,2.20
2022-07-26T11:20:53.717Z,2.08
2022-07-26T11:23:32.759Z,2.45
2022-07-26T11:26:11.548Z,1.67
2022-07-26T11:28:52.955Z,1.92
2022-07-26T11:31:23.652Z,1.88
2022-07-26T11:34:33.157Z,1.95
2022-07-26T11:37:02.135Z,1.92
2022-07-26T11:39:34.121Z,1.92
2022-07-26T11:42:07.281Z,1.85
2022-07-26T11:44:34.680Z,2.03
2022-07-26T11:47:21.316Z,2.30
2022-07-26T11:50:12.411Z,2.65
2022-07-26T11:52:40.018Z,2.33
2022-07-26T11:55:07.744Z,2.28
2022-07-26T11:57:34.582Z,2.22
2022-07-26T12:00:02.054Z,2.30
2022-07-26T12:02:38.411Z,2.03
2022-07-26T12:05:20.768Z,2.70
2022-07-26T12:08:02.968Z,1.80
2022-07-26T12:10:30.506Z,1.83
2022-07-26T12:13:15.149Z,1.90
2022-07-26T12:15:53.321Z,2.30
2022-07-26T12:18:24.543Z,2.10
2022-07-26T12:21:09.385Z,1.52
2022-07-26T12:23:48.116Z,1.42
2022-07-26T12:26:23.126Z,2.03
2022-07-26T12:28:50.259Z,1.83
2022-07-26T12:31:29.102Z,2.47
2022-07-26T12:33:56.729Z,2.45
2022-07-26T12:36:27.992Z,2.05
2022-07-26T12:38:57.767Z,1.63
2022-07-26T12:41:35.708Z,1.70
2022-07-26T12:44:03.134Z,1.50
2022-07-26T12:46:33.410Z,1.92
2022-07-26T12:49:01.204Z,1.70
2022-07-26T12:51:29.310Z,1.55
2022-07-26T12:53:56.294Z,1.75
2022-07-26T12:56:23.171Z,1.50
2022-07-26T12:58:50.198Z,1.80
2022-07-26T13:01:17.168Z,1.60
2022-07-26T13:03:44.346Z,1.67
2022-07-26T13:06:11.499Z,1.70
2022-07-26T13:08:38.562Z,2.00
2022-07-26T13:11:05.632Z,1.85
2022-07-26T13:13:32.553Z,1.83
2022-07-26T13:15:59.433Z,1.77
2022-07-26T13:18:26.361Z,1.58
2022-07-26T13:20:53.261Z,1.40
2022-07-26T13:23:22.121Z,1.23
2022-07-26T13:25:53.683Z,1.77
2022-07-26T13:28:21.484Z,1.40
2022-07-26T13:30:48.634Z,1.63
2022-07-26T13:33:17.611Z,1.20
2022-07-26T13:35:44.518Z,1.42
2022-07-26T13:38:11.469Z,1.60
2022-07-26T13:40:38.393Z,1.83
2022-07-26T13:43:05.685Z,1.55
2022-07-26T13:45:32.572Z,1.65
2022-07-26T13:47:59.889Z,2.08
2022-07-26T13:50:28.092Z,1.52
2022-07-26T13:52:56.336Z,1.38
2022-07-26T13:55:24.306Z,1.55
2022-07-26T13:57:56.636Z,1.65
2022-07-26T14:00:25.435Z,2.00
2022-07-26T14:02:52.368Z,1.95
2022-07-26T14:05:20.769Z,2.50
2022-07-26T14:07:47.731Z,2.10
2022-07-26T14:10:14.771Z,1.77
2022-07-26T14:12:41.750Z,2.28
2022-07-26T14:15:15.078Z,1.90
2022-07-26T14:17:42.930Z,1.77
2022-07-26T14:20:10.356Z,1.80
2022-07-26T14:22:37.256Z,1.70
2022-07-26T14:25:06.091Z,1.70
2022-07-26T14:27:33.193Z,1.85
2022-07-26T14:30:00.144Z,1.77
2022-07-26T14:32:27.115Z,1.30
2022-07-26T14:34:54.141Z,1.73
2022-07-26T14:37:41.387Z,1.90
2022-07-26T14:40:09.658Z,1.50
2022-07-26T14:42:36.519Z,1.77
2022-07-26T14:45:03.746Z,1.50
2022-07-26T14:47:30.654Z,1.80
2022-07-26T14:49:59.586Z,1.65
2022-07-26T14:52:28.564Z,1.60
2022-07-26T14:54:55.453Z,2.08
2022-07-26T14:57:22.411Z,1.40
2022-07-26T14:59:49.692Z,1.80
2022-07-26T15:02:16.729Z,1.90
2022-07-26T15:04:43.752Z,1.75
2022-07-26T15:07:11.301Z,2.30
2022-07-26T15:09:38.269Z,1.60
2022-07-26T15:12:06.361Z,1.65
2022-07-26T15:14:33.359Z,1.50
2022-07-26T15:17:00.334Z,2.33
2022-07-26T15:19:27.258Z,1.60
2022-07-26T15:21:54.955Z,1.83
2022-07-26T15:24:23.289Z,2.05
2022-07-26T15:26:51.452Z,2.20
2022-07-26T15:29:19.041Z,2.08
2022-07-26T15:31:48.332Z,1.77
2022-07-26T15:34:15.749Z,1.65
2022-07-26T15:36:43.075Z,1.70
2022-07-26T15:39:18.429Z,1.88
2022-07-26T15:41:47.277Z,1.90
2022-07-26T15:44:17.663Z,1.63
2022-07-26T15:46:49.129Z,1.70
2022-07-26T15:49:17.096Z,1.80
2022-07-26T15:51:44.493Z,1.33
2022-07-26T15:54:14.603Z,1.38
2022-07-26T15:56:43.376Z,1.55
2022-07-26T15:59:10.287Z,1.80
2022-07-26T16:01:37.876Z,1.25
2022-07-26T16:04:05.783Z,1.70
2022-07-26T16:06:35.981Z,1.98
2022-07-26T16:09:16.764Z,1.58
2022-07-26T16:11:44.679Z,1.35
2022-07-26T16:14:11.781Z,1.95
2022-07-26T16:16:38.759Z,1.60
2022-07-26T16:19:05.810Z,2.08
2022-07-26T16:21:32.869Z,1.55
2022-07-26T16:24:04.445Z,1.70
2022-07-26T16:26:33.799Z,1.98
2022-07-26T16:29:02.161Z,2.03
2022-07-26T16:31:31.976Z,1.58
2022-07-26T16:33:58.946Z,1.50
2022-07-26T16:36:25.940Z,1.55
2022-07-26T16:38:53.248Z,1.10
2022-07-26T16:41:20.242Z,1.55
2022-07-26T16:43:47.205Z,1.38
2022-07-26T16:46:14.229Z,1.40
2022-07-26T16:48:41.185Z,1.70
2022-07-26T16:51:08.171Z,1.13
2022-07-26T16:53:35.110Z,1.35
2022-07-26T16:56:02.191Z,1.25
2022-07-26T16:58:29.133Z,1.30
2022-07-26T17:00:56.035Z,1.30
2022-07-26T17:03:23.994Z,1.35
2022-07-26T17:05:51.170Z,1.00
2022-07-26T17:08:18.406Z,1.23
2022-07-26T17:10:45.699Z,1.20
2022-07-26T17:13:12.611Z,1.23
2022-07-26T17:15:39.471Z,1.30
2022-07-26T17:18:06.433Z,1.10
2022-07-26T17:20:33.318Z,1.83
2022-07-26T17:23:00.215Z,1.27
2022-07-26T17:25:27.272Z,1.30
2022-07-26T17:27:54.191Z,1.00
2022-07-26T17:30:21.094Z,1.00
2022-07-26T17:32:48.440Z,1.23
2022-07-26T17:35:15.901Z,1.30
2022-07-26T17:37:43.899Z,0.85
2022-07-26T17:40:11.659Z,0.80
2022-07-26T17:42:39.259Z,1.50
2022-07-26T17:45:07.587Z,1.00
2022-07-26T17:47:34.689Z,1.30
2022-07-26T17:52:51.726Z,1.05
2022-07-26T17:55:19.846Z,1.10
2022-07-26T17:57:49.774Z,1.17
2022-07-26T18:00:22.060Z,1.25
2022-07-26T18:02:49.401Z,1.17
2022-07-26T18:05:18.449Z,1.10
2022-07-26T18:07:45.883Z,1.48
2022-07-26T18:10:14.380Z,1.25
2022-07-26T18:12:41.665Z,1.15
2022-07-26T18:15:09.178Z,0.95
2022-07-26T18:17:36.806Z,1.20
2022-07-26T18:20:05.907Z,1.95
2022-07-26T18:22:32.956Z,1.58
2022-07-26T18:24:59.857Z,1.23
2022-07-26T18:27:28.261Z,1.20
2022-07-26T18:29:59.104Z,1.52
2022-07-26T18:32:26.924Z,1.48
2022-07-26T18:34:53.946Z,1.40
2022-07-26T18:37:21.326Z,1.63
2022-07-26T18:39:54.064Z,1.50
2022-07-26T18:42:24.140Z,1.20
2022-07-26T18:44:51.211Z,1.35
2022-07-26T18:47:18.089Z,1.35
2022-07-26T18:49:45.027Z,1.40
2022-07-26T18:52:11.951Z,1.70
2022-07-26T18:54:38.890Z,1.30
2022-07-26T18:57:06.185Z,1.52
2022-07-26T18:59:33.140Z,1.52
2022-07-26T19:02:00.656Z,1.50
2022-07-26T19:04:28.260Z,1.27
2022-07-26T19:06:55.664Z,1.33
2022-07-26T19:09:22.645Z,1.05
2022-07-26T19:11:49.712Z,1.27
2022-07-26T19:14:16.702Z,1.50
2022-07-26T19:16:43.639Z,1.55
2022-07-26T19:19:10.848Z,1.40
2022-07-26T19:21:40.093Z,1.20
2022-07-26T19:24:07.244Z,1.35
2022-07-26T19:26:35.737Z,1.30
2022-07-26T19:29:02.644Z,1.98
2022-07-26T19:31:29.899Z,1.38
2022-07-26T19:33:56.897Z,1.48
2022-07-26T19:36:26.067Z,1.23
2022-07-26T19:38:56.579Z,1.27
2022-07-26T19:41:23.953Z,1.50
2022-07-26T19:43:50.776Z,1.20
2022-07-26T19:46:17.680Z,1.50
2022-07-26T19:48:44.924Z,1.30
2022-07-26T19:51:11.936Z,1.55
2022-07-26T19:53:38.915Z,1.30
2022-07-26T19:56:06.187Z,1.60
2022-07-26T19:58:33.465Z,1.10
2022-07-26T20:01:00.361Z,1.15
2022-07-26T20:03:27.423Z,1.27
2022-07-26T20:05:56.774Z,1.27
2022-07-26T20:08:24.015Z,1.27
2022-07-26T20:10:51.277Z,1.15
2022-07-26T20:13:18.215Z,1.40
2022-07-26T20:15:47.126Z,1.42
2022-07-26T20:18:14.132Z,1.08
2022-07-26T20:20:41.025Z,1.42
2022-07-26T20:23:10.890Z,1.10
2022-07-26T20:25:37.784Z,1.40
2022-07-26T20:28:04.879Z,0.90
2022-07-26T20:30:31.832Z,1.17
2022-07-26T20:32:58.973Z,1.20
2022-07-26T20:35:25.821Z,1.52
2022-07-26T20:37:52.713Z,1.58
2022-07-26T20:40:19.725Z,1.73
2022-07-26T20:42:50.149Z,2.00
2022-07-26T20:45:17.276Z,1.60
2022-07-26T20:47:44.342Z,1.63
2022-07-26T20:50:12.201Z,1.60
2022-07-26T20:52:39.394Z,1.90
2022-07-26T20:55:07.107Z,1.70
2022-07-26T20:57:34.097Z,1.55
2022-07-26T21:00:01.148Z,2.08
2022-07-26T21:02:28.341Z,1.73
2022-07-26T21:04:55.395Z,1.63
2022-07-26T21:07:22.522Z,1.77
2022-07-26T21:09:49.659Z,1.90
2022-07-26T21:12:16.650Z,1.45
2022-07-26T21:14:43.761Z,2.10
2022-07-26T21:17:12.234Z,1.25
2022-07-26T21:19:39.967Z,1.75
2022-07-26T21:22:07.464Z,1.67
2022-07-26T21:24:35.137Z,1.20
2022-07-26T21:27:03.272Z,1.20
2022-07-26T21:29:39.498Z,1.67
2022-07-26T21:32:06.756Z,1.58
2022-07-26T21:34:36.897Z,1.65
2022-07-26T21:37:05.338Z,1.50
2022-07-26T21:39:32.269Z,1.30
2022-07-26T21:41:59.379Z,1.25
2022-07-26T21:44:26.824Z,1.80
2022-07-26T21:46:55.084Z,1.90
2022-07-26T21:49:22.070Z,1.80
2022-07-26T21:51:49.090Z,1.52
2022-07-26T21:54:16.283Z,1.60
2022-07-26T21:56:43.280Z,1.73
2022-07-26T21:59:10.549Z,1.80
2022-07-26T22:01:37.669Z,2.10
2022-07-26T22:04:04.942Z,1.60
2022-07-26T22:06:31.898Z,1.77
2022-07-26T22:08:59.120Z,1.60
2022-07-26T22:11:26.117Z,1.30
2022-07-26T22:13:53.045Z,1.38
2022-07-26T22:16:20.194Z,1.50
2022-07-26T22:18:47.811Z,1.65
2022-07-26T22:21:14.783Z,1.40
2022-07-26T22:23:41.731Z,1.75
2022-07-26T22:26:08.721Z,1.48
2022-07-26T22:28:35.708Z,1.48
2022-07-26T22:31:02.715Z,1.92
2022-07-26T22:33:29.813Z,1.42
2022-07-26T22:35:56.873Z,1.83
2022-07-26T22:38:23.878Z,1.85
2022-07-26T22:40:51.200Z,1.50
2022-07-26T22:43:18.255Z,1.30
2022-07-26T22:45:45.374Z,1.60
2022-07-26T22:48:12.347Z,2.33
2022-07-26T22:50:39.274Z,1.92
2022-07-26T22:53:06.432Z,1.83
2022-07-26T22:55:33.353Z,1.95
2022-07-26T22:58:01.304Z,1.80
2022-07-26T23:00:29.131Z,1.85
2022-07-26T23:02:56.480Z,1.63
2022-07-26T23:05:26.061Z,1.55
2022-07-26T23:08:18.333Z,1.80
2022-07-26T23:10:52.479Z,1.80
2022-07-26T23:13:19.357Z,1.30
2022-07-26T23:15:52.124Z,1.70
2022-07-26T23:18:20.561Z,2.13
2022-07-26T23:20:47.459Z,1.55
2022-07-26T23:23:14.409Z,1.75
2022-07-26T23:25:41.343Z,2.13
2022-07-26T23:28:08.210Z,2.03
2022-07-26T23:30:35.233Z,1.63
2022-07-26T23:33:02.172Z,1.83
2022-07-26T23:35:29.158Z,1.70
2022-07-26T23:37:56.087Z,1.88
2022-07-26T23:40:24.895Z,1.40
2022-07-26T23:42:56.132Z,1.60
2022-07-26T23:45:23.307Z,2.10
2022-07-26T23:47:51.309Z,1.67
2022-07-26T23:50:18.938Z,1.90
2022-07-26T23:52:45.895Z,1.65
2022-07-26T23:55:12.782Z,2.05
2022-07-26T23:57:39.706Z,1.80
